createdAt,value
2023-03-07T00:01:46.641Z,-1.32
2023-03-07T00:04:30.230Z,-1.23
2023-03-07T00:07:15.008Z,-1.02
2023-03-07T00:09:58.899Z,-1.01
2023-03-07T00:12:42.572Z,-0.96
2023-03-07T00:15:26.145Z,-1.02
2023-03-07T00:18:09.688Z,-1.06
2023-03-07T00:21:22.677Z,-0.92
2023-03-07T00:24:06.750Z,-0.92
2023-03-07T00:26:50.281Z,-0.97
2023-03-07T00:29:33.827Z,-1.22
2023-03-07T00:32:18.265Z,-1.20
2023-03-07T00:35:02.393Z,-0.84
2023-03-07T00:37:48.443Z,-1.10
2023-03-07T00:40:31.991Z,-1.30
2023-03-07T00:43:15.598Z,-1.15
2023-03-07T00:46:00.466Z,-1.11
2023-03-07T00:48:44.968Z,-0.97
2023-03-07T00:51:29.177Z,-0.96
2023-03-07T00:54:15.717Z,-0.83
2023-03-07T00:56:59.388Z,-0.67
2023-03-07T00:59:42.877Z,-0.78
2023-03-07T01:02:26.673Z,-0.76
2023-03-07T01:05:10.927Z,-0.89
2023-03-07T01:07:54.866Z,-0.81
2023-03-07T01:10:38.569Z,-0.76
2023-03-07T01:13:22.160Z,-0.71
2023-03-07T01:16:14.860Z,-0.51
2023-03-07T01:19:08.094Z,-0.79
2023-03-07T01:21:51.906Z,-0.60
2023-03-07T01:24:35.525Z,-0.43
2023-03-07T01:27:19.260Z,-0.56
2023-03-07T01:30:04.824Z,-0.44
2023-03-07T01:32:58.928Z,-0.51
2023-03-07T01:35:42.656Z,-0.71
2023-03-07T01:38:28.381Z,-0.49
2023-03-07T01:41:12.648Z,-0.49
2023-03-07T01:43:58.002Z,-0.30
2023-03-07T01:47:02.134Z,-0.31
2023-03-07T01:49:52.998Z,-0.13
2023-03-07T01:52:43.062Z,-0.10
2023-03-07T01:55:32.931Z,-0.31
2023-03-07T01:58:27.639Z,-0.15
2023-03-07T02:01:14.222Z,-0.25
2023-03-07T02:04:18.575Z,-0.02
2023-03-07T02:07:03.595Z,-0.07
2023-03-07T02:09:50.474Z,-0.20
2023-03-07T02:12:35.030Z,-0.20
2023-03-07T02:15:18.880Z,-0.17
2023-03-07T02:18:04.472Z,-0.25
2023-03-07T02:21:03.019Z,-0.37
2023-03-07T02:23:59.236Z,-0.12
2023-03-07T02:26:51.468Z,-0.12
2023-03-07T02:29:35.249Z,0.09
2023-03-07T02:32:19.359Z,-0.12
2023-03-07T02:35:10.442Z,0.02
2023-03-07T02:38:03.488Z,0.01
2023-03-07T02:40:47.676Z,-0.21
2023-03-07T02:43:34.039Z,0.05
2023-03-07T02:46:19.455Z,-0.01
2023-03-07T02:49:03.074Z,0.16
2023-03-07T02:51:46.907Z,0.25
2023-03-07T02:54:30.951Z,-0.09
2023-03-07T02:57:16.572Z,0.06
2023-03-07T03:00:00.476Z,0.26
2023-03-07T03:02:46.776Z,0.37
2023-03-07T03:05:30.615Z,0.20
2023-03-07T03:08:14.546Z,0.17
2023-03-07T03:11:00.667Z,0.35
2023-03-07T03:13:45.228Z,0.29
2023-03-07T03:16:29.065Z,0.22
2023-03-07T03:19:15.042Z,0.13
2023-03-07T03:22:00.589Z,0.15
2023-03-07T03:24:47.587Z,0.13
2023-03-07T03:27:34.049Z,0.08
2023-03-07T03:30:20.271Z,0.10
2023-03-07T03:33:04.200Z,0.16
2023-03-07T03:35:48.882Z,0.13
2023-03-07T03:38:33.527Z,0.16
2023-03-07T03:41:17.420Z,0.15
2023-03-07T03:44:03.827Z,0.18
2023-03-07T03:46:48.898Z,0.07
2023-03-07T03:49:34.793Z,0.05
2023-03-07T03:52:18.855Z,0.05
2023-03-07T03:55:02.556Z,0.12
2023-03-07T03:57:46.252Z,0.24
2023-03-07T04:00:30.814Z,0.26
2023-03-07T04:03:14.552Z,0.18
2023-03-07T04:06:03.276Z,0.38
2023-03-07T04:08:47.765Z,0.18
2023-03-07T04:11:31.852Z,0.22
2023-03-07T04:14:16.334Z,0.24
2023-03-07T04:17:00.080Z,0.23
2023-03-07T04:19:43.895Z,0.27
2023-03-07T04:22:28.203Z,0.32
2023-03-07T04:25:11.837Z,0.29
2023-03-07T04:27:55.476Z,0.49
2023-03-07T04:30:39.429Z,0.32
2023-03-07T04:33:23.365Z,0.40
2023-03-07T04:36:07.908Z,0.46
2023-03-07T04:38:51.902Z,0.50
2023-03-07T04:41:36.453Z,0.47
2023-03-07T04:44:28.577Z,0.47
2023-03-07T04:47:13.718Z,0.56
2023-03-07T04:49:57.289Z,0.64
2023-03-07T04:52:41.305Z,0.55
2023-03-07T04:55:25.725Z,0.62
2023-03-07T04:58:12.973Z,0.58
2023-03-07T05:00:58.698Z,0.59
2023-03-07T05:03:43.536Z,0.54
2023-03-07T05:06:27.824Z,0.60
2023-03-07T05:09:11.570Z,0.55
2023-03-07T05:11:58.216Z,0.41
2023-03-07T05:14:42.424Z,0.53
2023-03-07T05:17:26.501Z,0.46
2023-03-07T05:20:12.726Z,0.40
2023-03-07T05:22:57.639Z,0.41
2023-03-07T05:25:43.517Z,0.48
2023-03-07T05:28:27.331Z,0.51
2023-03-07T05:31:11.017Z,0.56
2023-03-07T05:34:04.975Z,0.49
2023-03-07T05:43:45.817Z,0.62
2023-03-07T05:46:40.161Z,0.61
2023-03-07T05:49:25.050Z,0.58
2023-03-07T05:52:09.267Z,0.55
2023-03-07T05:54:53.137Z,0.58
2023-03-07T05:57:36.804Z,0.50
2023-03-07T06:00:21.877Z,0.52
2023-03-07T06:03:11.625Z,0.59
2023-03-07T06:05:56.972Z,0.55
2023-03-07T06:08:40.718Z,0.56
2023-03-07T06:11:24.713Z,0.66
2023-03-07T06:14:08.447Z,0.65
2023-03-07T06:16:52.131Z,0.69
2023-03-07T06:19:35.877Z,0.55
2023-03-07T06:22:19.512Z,0.61
2023-03-07T06:25:03.260Z,0.60
2023-03-07T06:27:47.385Z,0.74
2023-03-07T06:30:34.340Z,0.76
2023-03-07T06:33:18.733Z,0.66
2023-03-07T06:36:11.781Z,0.71
2023-03-07T06:38:57.592Z,0.78
2023-03-07T06:41:41.988Z,0.75
2023-03-07T06:44:25.768Z,0.76
2023-03-07T06:47:09.587Z,0.83
2023-03-07T06:49:54.239Z,0.84
2023-03-07T06:52:37.993Z,0.86
2023-03-07T06:55:22.328Z,0.87
2023-03-07T06:58:07.404Z,0.91
2023-03-07T07:00:51.275Z,1.03
2023-03-07T07:03:35.083Z,0.98
2023-03-07T07:06:18.719Z,0.90
2023-03-07T07:09:05.535Z,0.91
2023-03-07T07:11:52.742Z,1.06
2023-03-07T07:14:36.501Z,1.00
2023-03-07T07:17:21.167Z,0.91
2023-03-07T07:20:07.454Z,1.09
2023-03-07T07:22:51.437Z,1.08
2023-03-07T10:08:55.671Z,4.10
2023-03-07T10:20:29.763Z,3.99
2023-03-07T10:32:37.748Z,4.05
2023-03-07T10:35:38.362Z,3.94
2023-03-07T10:39:06.625Z,3.73
2023-03-07T10:41:50.637Z,4.01
2023-03-07T10:44:35.269Z,3.85
2023-03-07T10:47:28.458Z,3.97
2023-03-07T10:50:42.889Z,3.86
2023-03-07T10:53:31.565Z,3.91
2023-03-07T10:56:18.547Z,3.61
2023-03-07T10:59:09.655Z,3.76
2023-03-07T11:02:01.003Z,4.01
2023-03-07T11:04:47.030Z,4.03
2023-03-07T11:07:35.915Z,3.95
2023-03-07T11:10:35.422Z,3.87
2023-03-07T11:13:23.234Z,3.73
2023-03-07T11:16:33.341Z,3.59
2023-03-07T11:19:44.958Z,3.68
2023-03-07T11:22:35.819Z,3.50
2023-03-07T11:25:26.704Z,3.55
2023-03-07T11:28:43.141Z,3.53
2023-03-07T11:32:05.848Z,3.67
2023-03-07T11:34:59.615Z,3.33
2023-03-07T11:38:03.862Z,3.64
2023-03-07T11:41:06.620Z,3.56
2023-03-07T11:44:26.051Z,3.19
2023-03-07T11:47:34.124Z,3.24
2023-03-07T11:50:28.932Z,3.48
2023-03-07T11:53:47.164Z,3.05
2023-03-07T11:56:46.749Z,3.34
2023-03-07T11:59:56.943Z,3.42
2023-03-07T12:03:02.381Z,3.50
2023-03-07T12:06:00.408Z,3.35
2023-03-07T12:09:18.548Z,3.60
2023-03-07T12:12:35.692Z,3.80
2023-03-07T12:15:39.076Z,3.61
2023-03-07T12:18:56.774Z,3.52
2023-03-07T12:21:52.271Z,3.63
2023-03-07T12:25:07.565Z,3.46
2023-03-07T12:28:09.201Z,3.58
2023-03-07T12:31:19.797Z,3.36
2023-03-07T12:34:31.701Z,3.59
2023-03-07T12:37:37.474Z,3.80
2023-03-07T12:40:50.614Z,3.27
2023-03-07T12:43:37.787Z,3.66
2023-03-07T12:46:33.441Z,3.35
2023-03-07T12:49:50.140Z,3.40
2023-03-07T12:52:52.470Z,3.18
2023-03-07T12:55:46.601Z,2.90
2023-03-07T12:58:55.529Z,3.29
2023-03-07T13:01:55.003Z,3.12
2023-03-07T13:04:43.318Z,2.92
2023-03-07T13:07:35.060Z,2.87
2023-03-07T13:10:23.609Z,3.06
2023-03-07T13:13:44.755Z,2.82
2023-03-07T13:16:43.171Z,2.93
2023-03-07T13:19:36.080Z,3.02
2023-03-07T13:22:19.532Z,2.69
2023-03-07T13:25:35.945Z,2.54
2023-03-07T13:28:36.020Z,2.40
2023-03-07T13:31:19.343Z,2.49
2023-03-07T13:34:48.070Z,2.22
2023-03-07T13:37:52.890Z,2.19
2023-03-07T13:40:36.924Z,2.26
2023-03-07T13:43:20.417Z,2.64
2023-03-07T13:46:46.872Z,2.72
2023-03-07T13:49:36.767Z,2.18
2023-03-07T13:52:37.758Z,2.60
2023-03-07T13:55:24.116Z,2.64
2023-03-07T13:58:37.623Z,2.50
2023-03-07T14:01:31.496Z,2.33
2023-03-07T14:04:39.278Z,2.45
2023-03-07T14:07:28.272Z,2.55
2023-03-07T14:10:23.716Z,2.88
2023-03-07T14:13:32.175Z,2.38
2023-03-07T14:16:56.293Z,2.60
2023-03-07T14:20:28.481Z,2.48
2023-03-07T14:24:07.803Z,2.05
2023-03-07T14:26:58.547Z,2.31
2023-03-07T14:29:56.945Z,2.33
2023-03-07T14:32:41.094Z,2.27
2023-03-07T14:35:57.114Z,2.41
2023-03-07T14:38:43.054Z,2.33
2023-03-07T14:42:34.317Z,2.61
2023-03-07T14:45:36.726Z,2.42
2023-03-07T14:49:00.576Z,2.42
2023-03-07T14:51:45.218Z,2.44
2023-03-07T14:54:33.391Z,2.40
2023-03-07T14:57:29.934Z,2.41
2023-03-07T15:00:28.895Z,2.36
2023-03-07T15:03:15.023Z,2.39
2023-03-07T15:06:02.828Z,2.46
2023-03-07T15:08:49.150Z,2.54
2023-03-07T15:11:46.620Z,2.72
2023-03-07T15:14:53.898Z,2.52
2023-03-07T15:17:44.031Z,2.62
2023-03-07T15:20:28.537Z,2.51
2023-03-07T15:23:24.459Z,2.62
2023-03-07T15:26:10.995Z,2.45
2023-03-07T15:29:09.262Z,2.29
2023-03-07T15:32:04.352Z,2.39
2023-03-07T15:35:08.003Z,2.46
2023-03-07T15:38:21.429Z,2.43
2023-03-07T15:41:31.707Z,2.32
2023-03-07T15:44:21.228Z,2.44
2023-03-07T15:47:17.094Z,2.38
2023-03-07T15:50:06.229Z,2.61
2023-03-07T15:53:00.400Z,2.43
2023-03-07T15:55:57.304Z,2.76
2023-03-07T15:58:45.748Z,2.64
2023-03-07T16:01:29.358Z,2.61
2023-03-07T16:04:35.798Z,2.40
2023-03-07T16:07:19.885Z,2.39
2023-03-07T16:10:03.443Z,2.43
2023-03-07T16:12:49.256Z,2.43
2023-03-07T16:15:32.798Z,2.38
2023-03-07T16:18:26.495Z,2.45
2023-03-07T16:21:14.626Z,2.22
2023-03-07T16:23:58.139Z,2.38
2023-03-07T16:26:44.421Z,2.34
2023-03-07T16:29:27.826Z,2.31
2023-03-07T16:32:17.138Z,2.22
2023-03-07T16:35:01.432Z,2.46
2023-03-07T16:37:46.467Z,2.67
2023-03-07T16:40:32.758Z,2.31
2023-03-07T16:43:38.549Z,2.31
2023-03-07T16:46:24.905Z,2.41
2023-03-07T16:49:18.253Z,2.43
2023-03-07T16:52:06.519Z,2.30
2023-03-07T16:54:51.261Z,2.37
2023-03-07T16:57:35.650Z,2.42
2023-03-07T17:00:24.580Z,2.30
2023-03-07T17:03:15.069Z,2.16
2023-03-07T17:05:59.336Z,2.13
2023-03-07T17:08:45.088Z,2.13
2023-03-07T17:11:29.527Z,2.11
2023-03-07T17:14:16.869Z,2.19
2023-03-07T17:17:01.857Z,2.28
2023-03-07T17:19:46.164Z,2.21
2023-03-07T17:22:30.282Z,2.13
2023-03-07T17:25:15.470Z,2.36
2023-03-07T17:28:14.797Z,2.31
2023-03-07T17:30:59.239Z,2.45
2023-03-07T17:33:43.612Z,2.43
2023-03-07T17:36:27.889Z,2.31
2023-03-07T17:39:12.981Z,2.41
2023-03-07T17:41:59.049Z,2.27
2023-03-07T17:44:43.395Z,2.53
2023-03-07T17:47:27.650Z,2.31
2023-03-07T17:50:12.781Z,2.37
2023-03-07T17:52:57.000Z,2.43
2023-03-07T17:55:41.492Z,2.25
2023-03-07T17:58:25.821Z,2.40
2023-03-07T18:01:12.154Z,2.41
2023-03-07T18:03:58.540Z,2.37
2023-03-07T18:06:43.045Z,2.39
2023-03-07T18:09:27.647Z,2.13
2023-03-07T18:12:12.200Z,2.09
2023-03-07T18:14:56.700Z,2.03
2023-03-07T18:17:48.286Z,2.01
2023-03-07T18:20:33.613Z,2.15
2023-03-07T18:23:17.723Z,2.12
2023-03-07T18:26:21.247Z,2.16
2023-03-07T18:29:05.699Z,2.08
2023-03-07T18:31:50.107Z,1.96
2023-03-07T18:34:34.485Z,2.06
2023-03-07T18:37:19.783Z,2.04
2023-03-07T18:40:05.290Z,1.97
2023-03-07T18:42:49.775Z,1.80
2023-03-07T18:45:34.067Z,1.76
2023-03-07T18:48:18.289Z,1.78
2023-03-07T18:51:06.669Z,1.81
2023-03-07T18:54:09.827Z,2.04
2023-03-07T18:56:54.415Z,1.93
2023-03-07T18:59:38.790Z,2.06
2023-03-07T19:02:23.239Z,1.90
2023-03-07T19:05:08.274Z,1.82
2023-03-07T19:07:52.551Z,1.79
2023-03-07T19:10:37.122Z,1.95
2023-03-07T19:13:21.643Z,1.85
2023-03-07T19:16:19.852Z,1.79
2023-03-07T19:19:04.359Z,1.95
2023-03-07T19:21:48.688Z,1.72
2023-03-07T19:24:33.407Z,1.74
2023-03-07T19:27:17.755Z,1.70
2023-03-07T19:30:02.230Z,1.56
2023-03-07T19:32:46.549Z,1.69
2023-03-07T19:35:30.875Z,1.66
2023-03-07T19:38:15.278Z,1.56
2023-03-07T19:41:00.350Z,1.69
2023-03-07T19:46:35.124Z,1.51
2023-03-07T19:49:19.439Z,1.67
2023-03-07T19:52:04.016Z,1.72
2023-03-07T19:54:51.075Z,1.52
2023-03-07T19:57:38.468Z,1.86
2023-03-07T20:00:23.054Z,1.63
2023-03-07T20:03:07.368Z,1.53
2023-03-07T20:05:51.566Z,1.65
2023-03-07T20:08:36.330Z,1.73
2023-03-07T20:11:30.462Z,1.78
2023-03-07T20:14:14.890Z,1.65
2023-03-07T20:16:59.138Z,1.65
2023-03-07T20:19:43.359Z,1.84
2023-03-07T20:22:28.662Z,1.73
2023-03-07T20:25:13.286Z,1.71
2023-03-07T20:27:58.157Z,1.56
2023-03-07T20:30:42.492Z,1.43
2023-03-07T20:33:26.557Z,1.51
2023-03-07T20:36:18.933Z,1.60
2023-03-07T20:39:13.140Z,1.67
2023-03-07T20:41:57.628Z,1.58
2023-03-07T20:44:41.748Z,1.51
2023-03-07T20:47:26.264Z,1.64
2023-03-07T20:50:11.621Z,1.39
2023-03-07T20:52:56.067Z,1.58
2023-03-07T20:55:40.549Z,1.64
2023-03-07T20:58:29.959Z,1.57
2023-03-07T21:01:18.164Z,1.73
2023-03-07T21:04:12.463Z,1.73
2023-03-07T21:06:56.892Z,1.37
2023-03-07T21:09:41.521Z,1.53
2023-03-07T21:12:26.005Z,1.43
2023-03-07T21:15:10.912Z,1.36
2023-03-07T21:17:55.536Z,1.46
2023-03-07T21:20:40.624Z,1.49
2023-03-07T21:23:26.057Z,1.40
2023-03-07T21:26:15.185Z,1.46
2023-03-07T21:29:00.624Z,1.67
2023-03-07T21:31:45.066Z,1.55
2023-03-07T21:34:29.710Z,1.63
2023-03-07T21:37:13.998Z,1.48
2023-03-07T21:39:58.386Z,1.52
2023-03-07T21:42:42.850Z,1.66
2023-03-07T21:45:27.194Z,1.63
2023-03-07T21:48:11.799Z,1.56
2023-03-07T21:50:56.083Z,1.56
2023-03-07T21:53:43.448Z,1.42
2023-03-07T21:56:28.464Z,1.51
2023-03-07T21:59:12.846Z,1.21
2023-03-07T22:01:57.137Z,1.51
2023-03-07T22:04:41.356Z,1.38
2023-03-07T22:07:25.717Z,1.46
2023-03-07T22:10:11.340Z,1.48
2023-03-07T22:12:55.927Z,1.46
2023-03-07T22:15:40.628Z,1.44
2023-03-07T22:18:25.309Z,1.57
2023-03-07T22:21:17.340Z,1.49
2023-03-07T22:24:01.599Z,1.50
2023-03-07T22:26:45.716Z,1.30
2023-03-07T22:29:29.891Z,1.36
2023-03-07T22:32:14.218Z,1.28
2023-03-07T22:34:58.592Z,1.48
2023-03-07T22:37:42.842Z,1.20
2023-03-07T22:40:27.183Z,1.20
2023-03-07T22:43:11.469Z,1.00
2023-03-07T22:45:55.814Z,1.22
2023-03-07T22:48:40.950Z,1.24
2023-03-07T22:51:26.633Z,1.24
2023-03-07T22:54:11.433Z,1.16
2023-03-07T22:56:55.799Z,1.05
2023-03-07T22:59:40.117Z,0.98
2023-03-07T23:02:24.554Z,0.70
2023-03-07T23:05:09.169Z,1.11
2023-03-07T23:07:53.316Z,1.11
2023-03-07T23:10:37.666Z,0.92
2023-03-07T23:13:21.889Z,1.11
2023-03-07T23:16:10.531Z,1.08
2023-03-07T23:18:57.368Z,0.93
2023-03-07T23:21:41.909Z,1.00
2023-03-07T23:24:26.049Z,0.96
2023-03-07T23:27:10.136Z,1.03
2023-03-07T23:29:54.256Z,0.99
2023-03-07T23:32:38.460Z,0.69
2023-03-07T23:35:22.556Z,0.97
2023-03-07T23:38:06.943Z,1.01
2023-03-07T23:40:51.382Z,1.11
2023-03-07T23:43:35.655Z,1.01
2023-03-07T23:46:20.707Z,1.23
2023-03-07T23:49:05.517Z,1.08
2023-03-07T23:51:49.727Z,1.03
2023-03-07T23:54:34.083Z,1.15
2023-03-07T23:57:18.406Z,0.93
